sensor_id;sensor_type;location;lat;lon;timestamp;pressure;altitude;pressure_sealevel;temperature
68745;BMP180;73143;45.456;11.064;2024-02-28T00:01:06;100110.80;;;12.40
68745;BMP180;73143;45.456;11.064;2024-02-28T00:03:43;100112.00;;;12.40
68745;BMP180;73143;45.456;11.064;2024-02-28T00:06:26;100099.80;;;12.40
68745;BMP180;73143;45.456;11.064;2024-02-28T00:09:03;100099.00;;;12.40
68745;BMP180;73143;45.456;11.064;2024-02-28T00:11:44;100096.40;;;12.40
68745;BMP180;73143;45.456;11.064;2024-02-28T00:14:22;100107.80;;;12.40
68745;BMP180;73143;45.456;11.064;2024-02-28T00:16:59;100122.80;;;12.50
68745;BMP180;73143;45.456;11.064;2024-02-28T00:19:36;100123.40;;;12.50
68745;BMP180;73143;45.456;11.064;2024-02-28T00:22:14;100123.00;;;12.50
68745;BMP180;73143;45.456;11.064;2024-02-28T00:24:54;100126.40;;;12.50
68745;BMP180;73143;45.456;11.064;2024-02-28T00:27:31;100134.20;;;12.50
68745;BMP180;73143;45.456;11.064;2024-02-28T00:30:14;100148.40;;;12.50
68745;BMP180;73143;45.456;11.064;2024-02-28T00:32:52;100127.00;;;12.46
68745;BMP180;73143;45.456;11.064;2024-02-28T00:35:31;100136.40;;;12.40
68745;BMP180;73143;45.456;11.064;2024-02-28T00:38:11;100133.00;;;12.40
68745;BMP180;73143;45.456;11.064;2024-02-28T00:40:48;100124.80;;;12.34
68745;BMP180;73143;45.456;11.064;2024-02-28T00:43:26;100122.80;;;12.30
68745;BMP180;73143;45.456;11.064;2024-02-28T00:46:05;100136.60;;;12.30
68745;BMP180;73143;45.456;11.064;2024-02-28T00:48:45;100133.00;;;12.36
68745;BMP180;73143;45.456;11.064;2024-02-28T00:51:26;100136.80;;;12.40
68745;BMP180;73143;45.456;11.064;2024-02-28T00:54:03;100136.00;;;12.40
68745;BMP180;73143;45.456;11.064;2024-02-28T00:56:40;100138.40;;;12.40
68745;BMP180;73143;45.456;11.064;2024-02-28T00:59:17;100146.40;;;12.50
68745;BMP180;73143;45.456;11.064;2024-02-28T01:01:55;100147.20;;;12.58
68745;BMP180;73143;45.456;11.064;2024-02-28T01:04:32;100144.80;;;12.60
68745;BMP180;73143;45.456;11.064;2024-02-28T01:07:10;100147.80;;;12.60
68745;BMP180;73143;45.456;11.064;2024-02-28T01:09:47;100142.60;;;12.60
68745;BMP180;73143;45.456;11.064;2024-02-28T01:12:25;100148.00;;;12.60
68745;BMP180;73143;45.456;11.064;2024-02-28T01:15:02;100151.40;;;12.68
68745;BMP180;73143;45.456;11.064;2024-02-28T01:17:39;100162.40;;;12.70
68745;BMP180;73143;45.456;11.064;2024-02-28T01:20:21;100158.00;;;12.70
68745;BMP180;73143;45.456;11.064;2024-02-28T01:22:58;100162.40;;;12.68
68745;BMP180;73143;45.456;11.064;2024-02-28T01:25:36;100157.00;;;12.60
68745;BMP180;73143;45.456;11.064;2024-02-28T01:28:13;100160.40;;;12.60
68745;BMP180;73143;45.456;11.064;2024-02-28T01:30:52;100153.00;;;12.50
68745;BMP180;73143;45.456;11.064;2024-02-28T01:33:29;100149.40;;;12.40
68745;BMP180;73143;45.456;11.064;2024-02-28T01:36:10;100155.80;;;12.40
68745;BMP180;73143;45.456;11.064;2024-02-28T01:38:49;100156.20;;;12.40
68745;BMP180;73143;45.456;11.064;2024-02-28T01:41:27;100145.00;;;12.40
68745;BMP180;73143;45.456;11.064;2024-02-28T01:44:04;100155.20;;;12.40
68745;BMP180;73143;45.456;11.064;2024-02-28T01:46:41;100142.20;;;12.40
68745;BMP180;73143;45.456;11.064;2024-02-28T01:49:19;100153.00;;;12.40
68745;BMP180;73143;45.456;11.064;2024-02-28T01:51:58;100150.40;;;12.40
68745;BMP180;73143;45.456;11.064;2024-02-28T01:54:36;100170.00;;;12.40
68745;BMP180;73143;45.456;11.064;2024-02-28T01:57:14;100156.20;;;12.44
68745;BMP180;73143;45.456;11.064;2024-02-28T01:59:52;100156.80;;;12.50
68745;BMP180;73143;45.456;11.064;2024-02-28T02:02:30;100164.60;;;12.42
68745;BMP180;73143;45.456;11.064;2024-02-28T02:05:10;100172.00;;;12.40
68745;BMP180;73143;45.456;11.064;2024-02-28T02:07:53;100162.60;;;12.40
68745;BMP180;73143;45.456;11.064;2024-02-28T02:10:30;100168.40;;;12.40
68745;BMP180;73143;45.456;11.064;2024-02-28T02:13:12;100169.60;;;12.40
68745;BMP180;73143;45.456;11.064;2024-02-28T02:15:49;100170.80;;;12.40
68745;BMP180;73143;45.456;11.064;2024-02-28T02:18:27;100163.00;;;12.42
68745;BMP180;73143;45.456;11.064;2024-02-28T02:21:09;100174.00;;;12.50
68745;BMP180;73143;45.456;11.064;2024-02-28T02:23:50;100172.20;;;12.50
68745;BMP180;73143;45.456;11.064;2024-02-28T02:26:28;100176.20;;;12.54
68745;BMP180;73143;45.456;11.064;2024-02-28T02:29:05;100177.80;;;12.60
68745;BMP180;73143;45.456;11.064;2024-02-28T02:31:44;100184.20;;;12.60
68745;BMP180;73143;45.456;11.064;2024-02-28T02:34:23;100177.40;;;12.60
68745;BMP180;73143;45.456;11.064;2024-02-28T02:37:00;100184.60;;;12.70
68745;BMP180;73143;45.456;11.064;2024-02-28T02:39:38;100178.80;;;12.74
68745;BMP180;73143;45.456;11.064;2024-02-28T02:42:16;100184.80;;;12.74
68745;BMP180;73143;45.456;11.064;2024-02-28T02:44:54;100183.40;;;12.72
68745;BMP180;73143;45.456;11.064;2024-02-28T02:47:31;100197.80;;;12.80
68745;BMP180;73143;45.456;11.064;2024-02-28T02:50:11;100188.80;;;12.80
68745;BMP180;73143;45.456;11.064;2024-02-28T02:52:48;100189.60;;;12.80
68745;BMP180;73143;45.456;11.064;2024-02-28T02:55:25;100198.80;;;12.80
68745;BMP180;73143;45.456;11.064;2024-02-28T02:58:03;100208.80;;;12.80
68745;BMP180;73143;45.456;11.064;2024-02-28T03:00:41;100186.80;;;12.80
68745;BMP180;73143;45.456;11.064;2024-02-28T03:03:19;100181.80;;;12.80
68745;BMP180;73143;45.456;11.064;2024-02-28T03:05:56;100169.00;;;12.80
68745;BMP180;73143;45.456;11.064;2024-02-28T03:08:32;100192.20;;;12.80
68745;BMP180;73143;45.456;11.064;2024-02-28T03:11:08;100171.80;;;12.80
68745;BMP180;73143;45.456;11.064;2024-02-28T03:13:45;100184.20;;;12.80
68745;BMP180;73143;45.456;11.064;2024-02-28T03:16:23;100181.20;;;12.80
68745;BMP180;73143;45.456;11.064;2024-02-28T03:19:03;100183.40;;;12.80
68745;BMP180;73143;45.456;11.064;2024-02-28T03:21:41;100171.60;;;12.80
68745;BMP180;73143;45.456;11.064;2024-02-28T03:24:18;100182.80;;;12.80
68745;BMP180;73143;45.456;11.064;2024-02-28T03:26:57;100195.20;;;12.80
68745;BMP180;73143;45.456;11.064;2024-02-28T03:29:34;100179.00;;;12.80
68745;BMP180;73143;45.456;11.064;2024-02-28T03:32:14;100183.00;;;12.80
68745;BMP180;73143;45.456;11.064;2024-02-28T03:34:51;100183.40;;;12.80
68745;BMP180;73143;45.456;11.064;2024-02-28T03:37:30;100180.00;;;12.80
68745;BMP180;73143;45.456;11.064;2024-02-28T03:40:11;100185.40;;;12.80
68745;BMP180;73143;45.456;11.064;2024-02-28T03:42:49;100184.40;;;12.80
68745;BMP180;73143;45.456;11.064;2024-02-28T03:45:30;100187.00;;;12.80
68745;BMP180;73143;45.456;11.064;2024-02-28T03:48:10;100195.60;;;12.88
68745;BMP180;73143;45.456;11.064;2024-02-28T03:50:47;100197.00;;;12.90
68745;BMP180;73143;45.456;11.064;2024-02-28T03:53:24;100199.60;;;12.90
68745;BMP180;73143;45.456;11.064;2024-02-28T03:56:02;100209.20;;;12.90
68745;BMP180;73143;45.456;11.064;2024-02-28T03:58:40;100208.40;;;12.90
68745;BMP180;73143;45.456;11.064;2024-02-28T04:01:18;100212.80;;;12.90
68745;BMP180;73143;45.456;11.064;2024-02-28T04:03:55;100216.40;;;12.90
68745;BMP180;73143;45.456;11.064;2024-02-28T04:06:34;100215.40;;;12.90
68745;BMP180;73143;45.456;11.064;2024-02-28T04:09:11;100216.40;;;12.90
68745;BMP180;73143;45.456;11.064;2024-02-28T04:11:48;100226.40;;;12.90
68745;BMP180;73143;45.456;11.064;2024-02-28T04:14:26;100233.00;;;12.90
68745;BMP180;73143;45.456;11.064;2024-02-28T04:17:03;100225.60;;;12.90
68745;BMP180;73143;45.456;11.064;2024-02-28T04:19:41;100223.00;;;12.90
68745;BMP180;73143;45.456;11.064;2024-02-28T04:22:19;100219.40;;;12.90
68745;BMP180;73143;45.456;11.064;2024-02-28T04:24:57;100211.20;;;12.90
68745;BMP180;73143;45.456;11.064;2024-02-28T04:27:35;100215.40;;;12.90
68745;BMP180;73143;45.456;11.064;2024-02-28T04:30:15;100215.40;;;12.90
68745;BMP180;73143;45.456;11.064;2024-02-28T04:32:52;100222.40;;;12.96
68745;BMP180;73143;45.456;11.064;2024-02-28T04:35:29;100223.00;;;13.00
68745;BMP180;73143;45.456;11.064;2024-02-28T04:38:08;100230.60;;;13.00
68745;BMP180;73143;45.456;11.064;2024-02-28T04:40:46;100241.80;;;13.00
68745;BMP180;73143;45.456;11.064;2024-02-28T04:43:24;100250.00;;;13.04
68745;BMP180;73143;45.456;11.064;2024-02-28T04:46:00;100250.80;;;13.06
68745;BMP180;73143;45.456;11.064;2024-02-28T04:48:37;100257.80;;;13.08
68745;BMP180;73143;45.456;11.064;2024-02-28T04:51:17;100256.80;;;13.00
68745;BMP180;73143;45.456;11.064;2024-02-28T04:53:54;100265.00;;;13.00
68745;BMP180;73143;45.456;11.064;2024-02-28T04:56:31;100257.20;;;13.00
68745;BMP180;73143;45.456;11.064;2024-02-28T04:59:10;100259.40;;;13.00
68745;BMP180;73143;45.456;11.064;2024-02-28T05:01:48;100267.60;;;13.00
68745;BMP180;73143;45.456;11.064;2024-02-28T05:04:26;100264.40;;;13.00
68745;BMP180;73143;45.456;11.064;2024-02-28T05:07:04;100269.40;;;13.00
68745;BMP180;73143;45.456;11.064;2024-02-28T05:09:42;100274.60;;;13.06
68745;BMP180;73143;45.456;11.064;2024-02-28T05:12:20;100274.00;;;13.10
68745;BMP180;73143;45.456;11.064;2024-02-28T05:14:57;100268.20;;;13.10
68745;BMP180;73143;45.456;11.064;2024-02-28T05:17:36;100266.00;;;13.10
68745;BMP180;73143;45.456;11.064;2024-02-28T05:20:17;100267.80;;;13.10
68745;BMP180;73143;45.456;11.064;2024-02-28T05:22:55;100272.80;;;13.00
68745;BMP180;73143;45.456;11.064;2024-02-28T05:25:32;100274.80;;;13.00
68745;BMP180;73143;45.456;11.064;2024-02-28T05:28:10;100272.20;;;13.00
68745;BMP180;73143;45.456;11.064;2024-02-28T05:30:47;100273.60;;;13.02
68745;BMP180;73143;45.456;11.064;2024-02-28T05:33:25;100261.00;;;13.10
68745;BMP180;73143;45.456;11.064;2024-02-28T05:36:03;100262.40;;;13.10
68745;BMP180;73143;45.456;11.064;2024-02-28T05:38:44;100269.60;;;13.10
68745;BMP180;73143;45.456;11.064;2024-02-28T05:41:21;100271.20;;;13.10
68745;BMP180;73143;45.456;11.064;2024-02-28T05:44:00;100271.20;;;13.10
68745;BMP180;73143;45.456;11.064;2024-02-28T05:46:37;100270.00;;;13.10
68745;BMP180;73143;45.456;11.064;2024-02-28T05:49:14;100283.40;;;13.10
68745;BMP180;73143;45.456;11.064;2024-02-28T05:51:52;100280.60;;;13.10
68745;BMP180;73143;45.456;11.064;2024-02-28T05:54:30;100280.20;;;13.20
68745;BMP180;73143;45.456;11.064;2024-02-28T05:57:08;100285.80;;;13.20
68745;BMP180;73143;45.456;11.064;2024-02-28T05:59:46;100289.40;;;13.24
68745;BMP180;73143;45.456;11.064;2024-02-28T06:02:24;100295.60;;;13.30
68745;BMP180;73143;45.456;11.064;2024-02-28T06:05:01;100302.80;;;13.40
68745;BMP180;73143;45.456;11.064;2024-02-28T06:07:38;100308.80;;;13.40
68745;BMP180;73143;45.456;11.064;2024-02-28T06:10:19;100314.80;;;13.40
68745;BMP180;73143;45.456;11.064;2024-02-28T06:12:58;100309.40;;;13.40
68745;BMP180;73143;45.456;11.064;2024-02-28T06:15:37;100316.40;;;13.40
68745;BMP180;73143;45.456;11.064;2024-02-28T06:18:14;100314.00;;;13.40
68745;BMP180;73143;45.456;11.064;2024-02-28T06:20:52;100333.60;;;13.40
68745;BMP180;73143;45.456;11.064;2024-02-28T06:23:29;100330.20;;;13.40
68745;BMP180;73143;45.456;11.064;2024-02-28T06:26:08;100331.80;;;13.40
68745;BMP180;73143;45.456;11.064;2024-02-28T06:28:51;100336.00;;;13.50
68745;BMP180;73143;45.456;11.064;2024-02-28T06:31:27;100345.60;;;13.52
68745;BMP180;73143;45.456;11.064;2024-02-28T06:34:05;100343.20;;;13.60
68745;BMP180;73143;45.456;11.064;2024-02-28T06:36:46;100342.80;;;13.60
68745;BMP180;73143;45.456;11.064;2024-02-28T06:39:22;100339.60;;;13.70
68745;BMP180;73143;45.456;11.064;2024-02-28T06:42:00;100344.20;;;13.70
68745;BMP180;73143;45.456;11.064;2024-02-28T06:44:37;100357.20;;;13.70
68745;BMP180;73143;45.456;11.064;2024-02-28T06:47:14;100360.60;;;13.70
68745;BMP180;73143;45.456;11.064;2024-02-28T06:49:52;100376.40;;;13.70
68745;BMP180;73143;45.456;11.064;2024-02-28T06:52:32;100376.20;;;13.70
68745;BMP180;73143;45.456;11.064;2024-02-28T06:55:11;100372.00;;;13.80
68745;BMP180;73143;45.456;11.064;2024-02-28T06:57:49;100380.80;;;13.80
68745;BMP180;73143;45.456;11.064;2024-02-28T07:00:27;100387.80;;;13.80
68745;BMP180;73143;45.456;11.064;2024-02-28T07:03:04;100380.00;;;13.90
68745;BMP180;73143;45.456;11.064;2024-02-28T07:05:41;100382.20;;;13.90
68745;BMP180;73143;45.456;11.064;2024-02-28T07:08:19;100390.80;;;13.90
68745;BMP180;73143;45.456;11.064;2024-02-28T07:10:56;100391.20;;;13.90
68745;BMP180;73143;45.456;11.064;2024-02-28T07:13:34;100395.00;;;13.90
68745;BMP180;73143;45.456;11.064;2024-02-28T07:16:11;100402.80;;;13.92
68745;BMP180;73143;45.456;11.064;2024-02-28T07:18:48;100404.40;;;13.94
68745;BMP180;73143;45.456;11.064;2024-02-28T07:21:27;100409.60;;;14.00
68745;BMP180;73143;45.456;11.064;2024-02-28T07:24:06;100404.60;;;14.00
68745;BMP180;73143;45.456;11.064;2024-02-28T07:26:43;100421.00;;;14.00
68745;BMP180;73143;45.456;11.064;2024-02-28T07:29:24;100415.00;;;14.00
68745;BMP180;73143;45.456;11.064;2024-02-28T07:32:00;100427.80;;;14.00
68745;BMP180;73143;45.456;11.064;2024-02-28T07:34:39;100419.80;;;14.00
68745;BMP180;73143;45.456;11.064;2024-02-28T07:37:16;100423.60;;;14.00
68745;BMP180;73143;45.456;11.064;2024-02-28T07:39:53;100420.60;;;14.10
68745;BMP180;73143;45.456;11.064;2024-02-28T07:42:33;100411.40;;;14.10
68745;BMP180;73143;45.456;11.064;2024-02-28T07:45:13;100420.40;;;14.10
68745;BMP180;73143;45.456;11.064;2024-02-28T07:47:50;100427.80;;;14.10
68745;BMP180;73143;45.456;11.064;2024-02-28T07:50:26;100433.60;;;14.20
68745;BMP180;73143;45.456;11.064;2024-02-28T07:53:04;100445.20;;;14.20
68745;BMP180;73143;45.456;11.064;2024-02-28T07:55:42;100435.20;;;14.30
68745;BMP180;73143;45.456;11.064;2024-02-28T07:58:19;100440.60;;;14.30
68745;BMP180;73143;45.456;11.064;2024-02-28T08:00:56;100439.20;;;14.30
68745;BMP180;73143;45.456;11.064;2024-02-28T08:03:33;100440.80;;;14.34
68745;BMP180;73143;45.456;11.064;2024-02-28T08:06:10;100451.20;;;14.40
68745;BMP180;73143;45.456;11.064;2024-02-28T08:08:49;100452.80;;;14.40
68745;BMP180;73143;45.456;11.064;2024-02-28T08:11:26;100460.80;;;14.40
68745;BMP180;73143;45.456;11.064;2024-02-28T08:14:03;100457.40;;;14.40
68745;BMP180;73143;45.456;11.064;2024-02-28T08:16:40;100455.40;;;14.50
68745;BMP180;73143;45.456;11.064;2024-02-28T08:19:19;100461.80;;;14.50
68745;BMP180;73143;45.456;11.064;2024-02-28T08:21:56;100470.00;;;14.50
68745;BMP180;73143;45.456;11.064;2024-02-28T08:24:33;100466.40;;;14.50
68745;BMP180;73143;45.456;11.064;2024-02-28T08:27:14;100468.80;;;14.52
68745;BMP180;73143;45.456;11.064;2024-02-28T08:29:50;100466.20;;;14.58
68745;BMP180;73143;45.456;11.064;2024-02-28T08:32:29;100463.40;;;14.58
68745;BMP180;73143;45.456;11.064;2024-02-28T08:35:09;100476.60;;;14.58
68745;BMP180;73143;45.456;11.064;2024-02-28T08:37:47;100468.40;;;14.60
68745;BMP180;73143;45.456;11.064;2024-02-28T08:40:24;100456.80;;;14.60
68745;BMP180;73143;45.456;11.064;2024-02-28T08:43:01;100464.00;;;14.60
68745;BMP180;73143;45.456;11.064;2024-02-28T08:45:40;100465.40;;;14.60
68745;BMP180;73143;45.456;11.064;2024-02-28T08:48:17;100468.40;;;14.70
68745;BMP180;73143;45.456;11.064;2024-02-28T08:50:56;100496.20;;;14.70
68745;BMP180;73143;45.456;11.064;2024-02-28T08:53:32;100470.40;;;14.70
68745;BMP180;73143;45.456;11.064;2024-02-28T08:56:13;100479.00;;;14.78
68745;BMP180;73143;45.456;11.064;2024-02-28T08:58:51;100469.00;;;14.80
68745;BMP180;73143;45.456;11.064;2024-02-28T09:01:28;100477.20;;;14.86
68745;BMP180;73143;45.456;11.064;2024-02-28T09:04:06;100495.80;;;14.90
68745;BMP180;73143;45.456;11.064;2024-02-28T09:06:43;100483.00;;;14.96
68745;BMP180;73143;45.456;11.064;2024-02-28T09:09:21;100488.60;;;15.00
68745;BMP180;73143;45.456;11.064;2024-02-28T09:11:59;100492.20;;;15.10
68745;BMP180;73143;45.456;11.064;2024-02-28T09:14:40;100511.00;;;15.20
68745;BMP180;73143;45.456;11.064;2024-02-28T09:17:17;100506.20;;;15.20
68745;BMP180;73143;45.456;11.064;2024-02-28T09:19:55;100503.20;;;15.20
68745;BMP180;73143;45.456;11.064;2024-02-28T09:22:31;100504.40;;;15.20
68745;BMP180;73143;45.456;11.064;2024-02-28T09:25:11;100503.40;;;15.20
68745;BMP180;73143;45.456;11.064;2024-02-28T09:27:51;100508.80;;;15.20
68745;BMP180;73143;45.456;11.064;2024-02-28T09:30:28;100510.20;;;15.30
68745;BMP180;73143;45.456;11.064;2024-02-28T09:33:19;100505.80;;;15.30
68745;BMP180;73143;45.456;11.064;2024-02-28T09:35:56;100522.20;;;15.40
68745;BMP180;73143;45.456;11.064;2024-02-28T09:38:34;100510.40;;;15.40
68745;BMP180;73143;45.456;11.064;2024-02-28T09:41:16;100516.40;;;15.40
68745;BMP180;73143;45.456;11.064;2024-02-28T09:43:54;100511.60;;;15.40
68745;BMP180;73143;45.456;11.064;2024-02-28T09:46:34;100514.00;;;15.40
68745;BMP180;73143;45.456;11.064;2024-02-28T09:49:12;100511.20;;;15.40
68745;BMP180;73143;45.456;11.064;2024-02-28T09:51:50;100523.60;;;15.40
68745;BMP180;73143;45.456;11.064;2024-02-28T09:54:27;100539.40;;;15.40
68745;BMP180;73143;45.456;11.064;2024-02-28T09:57:07;100526.40;;;15.40
68745;BMP180;73143;45.456;11.064;2024-02-28T09:59:45;100525.00;;;15.40
68745;BMP180;73143;45.456;11.064;2024-02-28T10:02:30;100541.00;;;15.30
68745;BMP180;73143;45.456;11.064;2024-02-28T10:05:10;100539.40;;;15.30
68745;BMP180;73143;45.456;11.064;2024-02-28T10:07:49;100555.20;;;15.28
68745;BMP180;73143;45.456;11.064;2024-02-28T10:10:26;100561.20;;;15.20
68745;BMP180;73143;45.456;11.064;2024-02-28T10:13:06;100559.00;;;15.10
68745;BMP180;73143;45.456;11.064;2024-02-28T10:15:44;100555.80;;;14.96
68745;BMP180;73143;45.456;11.064;2024-02-28T10:18:21;100549.00;;;14.80
68745;BMP180;73143;45.456;11.064;2024-02-28T10:20:59;100554.00;;;14.60
68745;BMP180;73143;45.456;11.064;2024-02-28T10:23:38;100554.00;;;14.40
68745;BMP180;73143;45.456;11.064;2024-02-28T10:26:16;100556.80;;;14.20
68745;BMP180;73143;45.456;11.064;2024-02-28T10:28:53;100568.00;;;14.00
68745;BMP180;73143;45.456;11.064;2024-02-28T10:31:30;100569.80;;;13.90
68745;BMP180;73143;45.456;11.064;2024-02-28T10:34:09;100579.40;;;13.90
68745;BMP180;73143;45.456;11.064;2024-02-28T10:36:46;100579.20;;;13.88
68745;BMP180;73143;45.456;11.064;2024-02-28T10:39:24;100561.00;;;13.90
68745;BMP180;73143;45.456;11.064;2024-02-28T10:42:05;100564.80;;;13.90
68745;BMP180;73143;45.456;11.064;2024-02-28T10:44:43;100571.00;;;13.90
68745;BMP180;73143;45.456;11.064;2024-02-28T10:47:21;100564.20;;;14.00
68745;BMP180;73143;45.456;11.064;2024-02-28T10:49:59;100572.40;;;14.10
68745;BMP180;73143;45.456;11.064;2024-02-28T10:52:44;100579.00;;;14.20
68745;BMP180;73143;45.456;11.064;2024-02-28T10:55:26;100579.00;;;14.30
68745;BMP180;73143;45.456;11.064;2024-02-28T10:58:09;100579.40;;;14.30
68745;BMP180;73143;45.456;11.064;2024-02-28T11:00:46;100588.60;;;14.30
68745;BMP180;73143;45.456;11.064;2024-02-28T11:03:24;100578.80;;;14.40
68745;BMP180;73143;45.456;11.064;2024-02-28T11:06:02;100580.40;;;14.40
68745;BMP180;73143;45.456;11.064;2024-02-28T11:08:41;100592.80;;;14.40
68745;BMP180;73143;45.456;11.064;2024-02-28T11:11:19;100591.80;;;14.40
68745;BMP180;73143;45.456;11.064;2024-02-28T11:14:00;100602.80;;;14.40
68745;BMP180;73143;45.456;11.064;2024-02-28T11:16:37;100591.20;;;14.30
68745;BMP180;73143;45.456;11.064;2024-02-28T11:19:22;100593.60;;;14.20
68745;BMP180;73143;45.456;11.064;2024-02-28T11:22:01;100600.80;;;14.20
68745;BMP180;73143;45.456;11.064;2024-02-28T11:24:39;100601.40;;;14.20
68745;BMP180;73143;45.456;11.064;2024-02-28T11:27:21;100598.80;;;14.22
68745;BMP180;73143;45.456;11.064;2024-02-28T11:29:59;100600.60;;;14.28
68745;BMP180;73143;45.456;11.064;2024-02-28T11:32:36;100604.80;;;14.30
68745;BMP180;73143;45.456;11.064;2024-02-28T11:35:15;100600.00;;;14.30
68745;BMP180;73143;45.456;11.064;2024-02-28T11:37:52;100610.40;;;14.30
68745;BMP180;73143;45.456;11.064;2024-02-28T11:40:31;100606.20;;;14.30
68745;BMP180;73143;45.456;11.064;2024-02-28T11:43:09;100602.80;;;14.30
68745;BMP180;73143;45.456;11.064;2024-02-28T11:45:46;100601.00;;;14.30
68745;BMP180;73143;45.456;11.064;2024-02-28T11:48:24;100597.60;;;14.30
68745;BMP180;73143;45.456;11.064;2024-02-28T11:51:01;100596.80;;;14.30
68745;BMP180;73143;45.456;11.064;2024-02-28T11:53:38;100594.80;;;14.30
68745;BMP180;73143;45.456;11.064;2024-02-28T11:56:16;100603.40;;;14.30
68745;BMP180;73143;45.456;11.064;2024-02-28T11:59:01;100599.20;;;14.30
68745;BMP180;73143;45.456;11.064;2024-02-28T12:01:43;100603.60;;;14.30
68745;BMP180;73143;45.456;11.064;2024-02-28T12:04:22;100603.80;;;14.30
68745;BMP180;73143;45.456;11.064;2024-02-28T12:07:02;100605.00;;;14.30
68745;BMP180;73143;45.456;11.064;2024-02-28T12:09:38;100605.20;;;14.30
68745;BMP180;73143;45.456;11.064;2024-02-28T12:12:16;100611.20;;;14.30
68745;BMP180;73143;45.456;11.064;2024-02-28T12:14:57;100607.60;;;14.30
68745;BMP180;73143;45.456;11.064;2024-02-28T12:17:35;100602.40;;;14.30
68745;BMP180;73143;45.456;11.064;2024-02-28T12:20:16;100592.00;;;14.30
68745;BMP180;73143;45.456;11.064;2024-02-28T12:22:55;100593.60;;;14.30
68745;BMP180;73143;45.456;11.064;2024-02-28T12:25:33;100590.00;;;14.30
68745;BMP180;73143;45.456;11.064;2024-02-28T12:28:16;100586.80;;;14.30
68745;BMP180;73143;45.456;11.064;2024-02-28T12:30:53;100584.00;;;14.30
68745;BMP180;73143;45.456;11.064;2024-02-28T12:33:31;100579.80;;;14.30
68745;BMP180;73143;45.456;11.064;2024-02-28T12:36:09;100572.40;;;14.20
68745;BMP180;73143;45.456;11.064;2024-02-28T12:38:46;100569.00;;;14.20
68745;BMP180;73143;45.456;11.064;2024-02-28T12:41:25;100567.40;;;14.22
68745;BMP180;73143;45.456;11.064;2024-02-28T12:44:03;100572.20;;;14.20
68745;BMP180;73143;45.456;11.064;2024-02-28T12:46:40;100574.00;;;14.20
68745;BMP180;73143;45.456;11.064;2024-02-28T12:49:17;100579.00;;;14.20
68745;BMP180;73143;45.456;11.064;2024-02-28T12:51:55;100572.60;;;14.20
68745;BMP180;73143;45.456;11.064;2024-02-28T12:54:33;100569.60;;;14.20
68745;BMP180;73143;45.456;11.064;2024-02-28T12:57:12;100576.20;;;14.20
68745;BMP180;73143;45.456;11.064;2024-02-28T12:59:51;100574.80;;;14.20
68745;BMP180;73143;45.456;11.064;2024-02-28T13:02:29;100568.00;;;14.20
68745;BMP180;73143;45.456;11.064;2024-02-28T13:05:09;100566.20;;;14.20
68745;BMP180;73143;45.456;11.064;2024-02-28T13:07:47;100569.00;;;14.22
68745;BMP180;73143;45.456;11.064;2024-02-28T13:10:24;100570.80;;;14.30
68745;BMP180;73143;45.456;11.064;2024-02-28T13:13:03;100564.20;;;14.30
68745;BMP180;73143;45.456;11.064;2024-02-28T13:15:39;100557.80;;;14.30
68745;BMP180;73143;45.456;11.064;2024-02-28T13:18:17;100556.00;;;14.30
68745;BMP180;73143;45.456;11.064;2024-02-28T13:20:55;100551.60;;;14.30
68745;BMP180;73143;45.456;11.064;2024-02-28T13:23:32;100562.20;;;14.30
68745;BMP180;73143;45.456;11.064;2024-02-28T13:26:10;100563.20;;;14.30
68745;BMP180;73143;45.456;11.064;2024-02-28T13:28:52;100570.20;;;14.30
68745;BMP180;73143;45.456;11.064;2024-02-28T13:31:29;100565.00;;;14.30
68745;BMP180;73143;45.456;11.064;2024-02-28T13:34:05;100570.80;;;14.30
68745;BMP180;73143;45.456;11.064;2024-02-28T13:36:43;100572.80;;;14.10
68745;BMP180;73143;45.456;11.064;2024-02-28T13:39:21;100571.20;;;14.00
68745;BMP180;73143;45.456;11.064;2024-02-28T13:41:57;100572.80;;;13.90
68745;BMP180;73143;45.456;11.064;2024-02-28T13:44:34;100575.20;;;13.80
68745;BMP180;73143;45.456;11.064;2024-02-28T13:47:13;100577.00;;;13.76
68745;BMP180;73143;45.456;11.064;2024-02-28T13:49:50;100582.00;;;13.70
68745;BMP180;73143;45.456;11.064;2024-02-28T13:52:27;100585.80;;;13.70
68745;BMP180;73143;45.456;11.064;2024-02-28T13:55:06;100590.40;;;13.70
68745;BMP180;73143;45.456;11.064;2024-02-28T13:57:44;100580.00;;;13.70
68745;BMP180;73143;45.456;11.064;2024-02-28T14:00:25;100585.80;;;13.60
68745;BMP180;73143;45.456;11.064;2024-02-28T14:03:01;100574.60;;;13.60
68745;BMP180;73143;45.456;11.064;2024-02-28T14:05:38;100578.00;;;13.60
68745;BMP180;73143;45.456;11.064;2024-02-28T14:08:15;100568.40;;;13.50
68745;BMP180;73143;45.456;11.064;2024-02-28T14:10:53;100574.00;;;13.50
68745;BMP180;73143;45.456;11.064;2024-02-28T14:13:31;100575.00;;;13.50
68745;BMP180;73143;45.456;11.064;2024-02-28T14:16:08;100569.00;;;13.50
68745;BMP180;73143;45.456;11.064;2024-02-28T14:18:45;100579.00;;;13.50
68745;BMP180;73143;45.456;11.064;2024-02-28T14:21:23;100583.00;;;13.50
68745;BMP180;73143;45.456;11.064;2024-02-28T14:24:00;100581.80;;;13.60
68745;BMP180;73143;45.456;11.064;2024-02-28T14:26:37;100582.40;;;13.60
68745;BMP180;73143;45.456;11.064;2024-02-28T14:29:14;100585.20;;;13.60
68745;BMP180;73143;45.456;11.064;2024-02-28T14:31:51;100575.40;;;13.60
68745;BMP180;73143;45.456;11.064;2024-02-28T14:34:27;100574.60;;;13.60
68745;BMP180;73143;45.456;11.064;2024-02-28T14:37:05;100578.60;;;13.70
68745;BMP180;73143;45.456;11.064;2024-02-28T14:39:42;100574.80;;;13.70
68745;BMP180;73143;45.456;11.064;2024-02-28T14:42:18;100572.40;;;13.70
68745;BMP180;73143;45.456;11.064;2024-02-28T14:44:56;100572.60;;;13.76